Etusivu
METAR-TAF:

METAR-TAF

Lentoasemat :

Noi Bain kansainvälinen lentoasema

Hanoi, Vietnam

Leveyspiiri: 21-01N, Pituuspiiri: 105-48E, korkeus merenpinnasta: 6 m

Tämänhetkinen sää

Tämä raportti tehtiin 17 minuuttia sitten, kello 20.30 UTC
Tuuli 11 kn pohjoisesta
Lämpötila 19°C
Kosteus 60%
Ilmanpaine 1020 hPa
Näkyvyys 10 km tai enemmän
Muutamia pilviä 1900 ft:n korkeudessa
Hajonneita pilviä 4000 ft:n korkeudessa

METAR: VVNB 212030Z 01011KT 9999 FEW019 BKN040 19/11 Q1020 NOSIG

Aika: 03:47 (20:47 UTC)

Sääennuste

Tämä raportti tehtiin 3 tuntia ja 47 minuuttia sitten, kello 17.00 UTC
Ennuste voimassa 21. päivästä klo 18 UTC - 22. päivään klo 18 UTC
Tuuli 12 kn pohjoisesta/koillisesta
Näkyvyys 10 km tai enemmän
Muutamia pilviä 2000 ft:n korkeudessa
Hajonneita pilviä 4000 ft:n korkeudessa

TAF: VVNB 211700Z 2118/2218 02012KT 9999 FEW020 BKN040

Säähavainnot ja -ennusteet yli 4000 lentoasemalta (METAR- ja TAF-raportit).

Käytössä olevat sääasemat on merkitty karttaan keltaisilla ja punaisilla pisteillä.

Aseta hiiri pisteen päälle nähdäksesi sääaseman nimen.

Klikkaa sitten nähdäksesi säähavainnot ja -ennusteet.

Kartan vaihtaminen: klikkaa mustalla rastilla varustettuja vihreitä pisteitä, niin voit zoomata sisään; viivalla varustettua vihreää pistettä, niin voit zoomata ulos tai vihreitä nuolia, niin pääset viereisille kartoille.


METAR-TAF: